createdAt,value
2023-01-17T00:01:24.722Z,4.53
2023-01-17T00:04:11.340Z,4.83
2023-01-17T00:06:56.846Z,5.13
2023-01-17T00:09:43.015Z,4.10
2023-01-17T00:12:10.676Z,3.20
2023-01-17T00:14:38.380Z,4.50
2023-01-17T00:17:06.211Z,3.67
2023-01-17T00:19:52.818Z,4.70
2023-01-17T00:22:40.438Z,3.57
2023-01-17T00:25:29.596Z,4.87
2023-01-17T00:27:56.090Z,4.40
2023-01-17T00:30:22.792Z,3.93
2023-01-17T00:32:49.419Z,2.97
2023-01-17T00:35:17.338Z,4.43
2023-01-17T00:37:43.913Z,4.37
2023-01-17T00:40:11.549Z,3.27
2023-01-17T00:42:38.081Z,5.17
2023-01-17T00:45:24.177Z,3.60
2023-01-17T00:48:09.475Z,3.33
2023-01-17T00:50:56.479Z,2.73
2023-01-17T00:53:41.992Z,3.13
2023-01-17T00:56:27.600Z,5.80
2023-01-17T00:59:12.698Z,3.90
2023-01-17T01:01:58.152Z,3.20
2023-01-17T01:04:43.493Z,3.37
2023-01-17T01:07:30.393Z,2.80
2023-01-17T01:10:15.828Z,2.30
2023-01-17T01:13:01.407Z,3.00
2023-01-17T01:15:46.834Z,2.70
2023-01-17T01:18:32.097Z,5.00
2023-01-17T01:21:21.445Z,4.00
2023-01-17T01:24:08.263Z,4.83
2023-01-17T01:26:53.600Z,3.77
2023-01-17T01:29:39.143Z,2.73
2023-01-17T01:32:24.681Z,2.97
2023-01-17T01:34:52.224Z,1.80
2023-01-17T01:37:19.785Z,2.37
2023-01-17T01:39:48.640Z,3.63
2023-01-17T01:42:16.812Z,2.83
2023-01-17T01:44:47.497Z,3.03
2023-01-17T01:47:22.261Z,3.00
2023-01-17T01:49:50.434Z,2.37
2023-01-17T01:52:19.363Z,3.20
2023-01-17T01:54:52.888Z,4.20
2023-01-17T01:57:23.932Z,3.60
2023-01-17T01:59:55.122Z,4.13
2023-01-17T02:02:22.684Z,2.50
2023-01-17T02:04:50.858Z,2.97
2023-01-17T02:07:21.660Z,6.77
2023-01-17T02:09:51.083Z,2.80
2023-01-17T02:12:19.915Z,3.00
2023-01-17T02:14:47.515Z,3.70
2023-01-17T02:17:22.341Z,4.77
2023-01-17T02:20:05.275Z,4.00
2023-01-17T02:23:13.166Z,3.43
2023-01-17T02:26:01.078Z,4.13
2023-01-17T02:28:41.939Z,6.80
2023-01-17T02:31:13.650Z,3.70
2023-01-17T02:33:45.581Z,8.97
2023-01-17T02:36:18.652Z,5.60
2023-01-17T02:38:51.473Z,5.17
2023-01-17T02:41:22.653Z,4.83
2023-01-17T02:43:52.086Z,5.80
2023-01-17T02:46:21.254Z,6.63
2023-01-17T02:48:49.469Z,4.93
2023-01-17T02:51:29.849Z,7.50
2023-01-17T02:54:11.335Z,6.40
2023-01-17T02:56:49.051Z,5.70
2023-01-17T02:59:26.668Z,5.60
2023-01-17T03:02:06.412Z,6.30
2023-01-17T03:04:38.894Z,8.43
2023-01-17T03:07:10.009Z,6.00
2023-01-17T03:09:38.571Z,7.97
2023-01-17T03:12:07.231Z,6.17
2023-01-17T03:14:34.916Z,7.30
2023-01-17T03:17:03.809Z,10.30
2023-01-17T03:19:31.478Z,6.40
2023-01-17T03:21:59.258Z,9.20
2023-01-17T03:24:27.129Z,8.20
2023-01-17T03:26:54.846Z,8.20
2023-01-17T03:29:22.400Z,8.40
2023-01-17T03:31:49.929Z,11.70
2023-01-17T03:34:18.854Z,8.63
2023-01-17T03:36:46.413Z,8.10
2023-01-17T03:39:14.043Z,9.43
2023-01-17T03:41:41.671Z,9.10
2023-01-17T03:44:09.305Z,9.90
2023-01-17T03:46:36.892Z,14.27
2023-01-17T03:49:05.697Z,10.40
2023-01-17T03:51:34.514Z,12.47
2023-01-17T03:54:02.141Z,13.20
2023-01-17T03:56:30.067Z,11.10
2023-01-17T03:58:58.666Z,10.77
2023-01-17T04:01:26.544Z,11.50
2023-01-17T04:03:54.399Z,11.00
2023-01-17T04:06:22.037Z,10.47
2023-01-17T04:08:51.300Z,10.40
2023-01-17T04:11:18.843Z,11.43
2023-01-17T04:13:46.586Z,12.60
2023-01-17T04:16:16.416Z,11.97
2023-01-17T04:18:44.590Z,13.80
2023-01-17T04:21:12.218Z,10.97
2023-01-17T04:23:40.005Z,9.67
2023-01-17T04:26:10.183Z,7.37
2023-01-17T04:28:37.666Z,5.23
2023-01-17T04:31:05.333Z,5.00
2023-01-17T04:33:33.107Z,3.70
2023-01-17T04:36:00.840Z,4.60
2023-01-17T04:38:28.400Z,4.40
2023-01-17T04:40:56.316Z,4.40
2023-01-17T04:43:25.271Z,5.33
2023-01-17T04:45:56.152Z,5.23
2023-01-17T04:48:25.188Z,6.70
2023-01-17T04:50:52.762Z,5.80
2023-01-17T04:53:20.286Z,5.63
2023-01-17T04:55:47.887Z,6.30
2023-01-17T04:58:15.540Z,5.20
2023-01-17T05:00:44.347Z,5.60
2023-01-17T05:03:11.903Z,6.37
2023-01-17T05:05:39.542Z,5.80
2023-01-17T05:08:07.074Z,4.40
2023-01-17T05:10:34.756Z,6.10
2023-01-17T05:13:03.078Z,6.10
2023-01-17T05:15:30.857Z,11.23
2023-01-17T05:17:59.912Z,7.80
2023-01-17T05:20:27.877Z,7.63
2023-01-17T05:22:56.726Z,9.70
2023-01-17T05:25:26.215Z,5.87
2023-01-17T05:27:54.988Z,6.50
2023-01-17T05:30:23.469Z,6.60
2023-01-17T05:32:51.888Z,7.27
2023-01-17T05:35:23.370Z,7.47
2023-01-17T05:37:52.369Z,8.13
2023-01-17T05:40:21.772Z,9.83
2023-01-17T05:42:50.421Z,7.77
2023-01-17T05:45:19.092Z,7.63
2023-01-17T05:47:47.709Z,7.23
2023-01-17T05:50:17.912Z,7.33
2023-01-17T05:52:51.787Z,6.63
2023-01-17T05:55:19.852Z,5.60
2023-01-17T05:57:47.859Z,7.40
2023-01-17T06:00:16.798Z,4.77
2023-01-17T06:02:45.239Z,2.83
2023-01-17T06:05:13.348Z,3.10
2023-01-17T06:07:41.183Z,3.33
2023-01-17T06:10:11.432Z,1.87
2023-01-17T06:12:39.199Z,3.73
2023-01-17T06:15:09.359Z,2.30
2023-01-17T06:17:37.125Z,1.60
2023-01-17T06:20:05.623Z,1.53
2023-01-17T06:22:33.568Z,2.13
2023-01-17T06:25:01.468Z,2.13
2023-01-17T06:27:30.334Z,3.93
2023-01-17T06:29:57.857Z,2.63
2023-01-17T06:32:25.650Z,2.70
2023-01-17T06:34:53.572Z,1.60
2023-01-17T06:37:21.182Z,7.50
2023-01-17T06:39:49.270Z,1.30
2023-01-17T06:42:17.166Z,3.67
2023-01-17T06:44:46.341Z,1.30
2023-01-17T06:47:16.394Z,2.80
2023-01-17T06:49:44.478Z,2.70
2023-01-17T06:52:14.388Z,1.97
2023-01-17T06:54:41.852Z,4.80
2023-01-17T06:57:10.026Z,3.93
2023-01-17T06:59:45.738Z,6.73
2023-01-17T07:02:15.551Z,5.97
2023-01-17T07:04:43.070Z,4.80
2023-01-17T07:07:10.570Z,3.73
2023-01-17T07:09:38.252Z,5.00
2023-01-17T07:12:06.009Z,7.63
2023-01-17T07:14:33.541Z,4.77
2023-01-17T07:17:01.041Z,12.73
2023-01-17T07:19:30.019Z,4.80
2023-01-17T07:21:57.602Z,6.77
2023-01-17T07:24:25.406Z,5.90
2023-01-17T07:26:52.989Z,4.63
2023-01-17T07:29:20.565Z,5.63
2023-01-17T07:31:49.456Z,4.10
2023-01-17T07:34:18.197Z,4.33
2023-01-17T07:36:49.560Z,4.50
2023-01-17T07:39:17.273Z,17.27
2023-01-17T07:41:44.907Z,8.63
2023-01-17T07:44:12.926Z,7.60
2023-01-17T07:46:40.706Z,14.50
2023-01-17T07:49:08.308Z,4.90
2023-01-17T07:51:36.072Z,8.43
2023-01-17T07:54:05.021Z,10.13
2023-01-17T07:56:34.685Z,7.40
2023-01-17T07:59:02.366Z,9.10
2023-01-17T08:01:30.218Z,13.63
2023-01-17T08:03:57.968Z,12.53
2023-01-17T08:06:26.656Z,6.53
2023-01-17T08:08:55.055Z,7.90
2023-01-17T08:11:23.932Z,9.30
2023-01-17T08:13:57.204Z,7.13
2023-01-17T08:16:25.438Z,9.97
2023-01-17T08:18:53.274Z,11.60
2023-01-17T08:21:20.835Z,5.10
2023-01-17T08:23:49.270Z,6.10
2023-01-17T08:26:21.331Z,5.47
2023-01-17T08:28:51.186Z,8.10
2023-01-17T08:31:19.957Z,7.10
2023-01-17T08:33:47.661Z,10.40
2023-01-17T08:36:15.535Z,13.67
2023-01-17T08:38:43.276Z,11.43
2023-01-17T08:41:10.927Z,6.60
2023-01-17T08:43:38.665Z,6.37
2023-01-17T08:46:07.882Z,9.80
2023-01-17T08:48:55.002Z,6.97
2023-01-17T08:51:32.343Z,8.73
2023-01-17T08:54:00.350Z,6.33
2023-01-17T08:56:28.343Z,4.63
2023-01-17T08:58:56.292Z,6.37
2023-01-17T09:01:25.473Z,8.10
2023-01-17T09:03:53.257Z,9.33
2023-01-17T09:06:21.451Z,14.87
2023-01-17T09:08:49.641Z,6.73
2023-01-17T09:11:18.210Z,6.70
2023-01-17T09:13:45.854Z,6.63
2023-01-17T09:16:13.607Z,9.50
2023-01-17T09:18:42.732Z,8.10
2023-01-17T09:21:11.957Z,7.30
2023-01-17T09:23:39.585Z,6.60
2023-01-17T09:26:07.238Z,4.63
2023-01-17T09:28:40.816Z,11.77
2023-01-17T09:31:08.977Z,16.77
2023-01-17T09:33:36.668Z,8.17
2023-01-17T09:36:10.192Z,11.43
2023-01-17T09:38:38.553Z,13.80
2023-01-17T09:41:21.976Z,3.23
2023-01-17T09:43:51.853Z,5.80
2023-01-17T09:46:23.888Z,21.23
2023-01-17T09:48:54.959Z,2.77
2023-01-17T09:51:24.988Z,13.33
2023-01-17T09:53:53.650Z,6.60
2023-01-17T09:56:24.964Z,5.33
2023-01-17T09:59:19.012Z,6.13
2023-01-17T10:01:52.143Z,7.00
2023-01-17T10:04:51.300Z,7.53
2023-01-17T10:07:31.162Z,14.03
2023-01-17T10:10:08.280Z,7.23
2023-01-17T10:12:40.948Z,5.27
2023-01-17T10:15:32.420Z,11.10
2023-01-17T10:18:07.695Z,10.53
2023-01-17T10:20:43.659Z,12.70
2023-01-17T10:23:43.970Z,4.73
2023-01-17T10:26:16.443Z,9.10
2023-01-17T10:28:48.676Z,8.77
2023-01-17T10:31:20.781Z,6.83
2023-01-17T10:33:51.743Z,7.53
2023-01-17T10:36:21.457Z,7.90
2023-01-17T10:38:50.229Z,4.60
2023-01-17T10:41:23.856Z,8.07
2023-01-17T10:43:58.057Z,4.97
2023-01-17T10:46:28.768Z,9.67
2023-01-17T10:48:57.483Z,8.30
2023-01-17T10:51:43.012Z,9.67
2023-01-17T10:54:22.092Z,8.03
2023-01-17T10:56:51.188Z,11.63
2023-01-17T10:59:24.804Z,2.90
2023-01-17T11:01:52.792Z,3.77
2023-01-17T11:04:21.896Z,3.30
2023-01-17T11:06:58.413Z,4.77
2023-01-17T11:09:38.309Z,3.57
2023-01-17T11:12:18.656Z,4.57
2023-01-17T11:14:58.069Z,14.23
2023-01-17T11:17:27.505Z,9.50
2023-01-17T11:19:55.389Z,7.03
2023-01-17T11:22:23.631Z,3.30
2023-01-17T11:24:54.153Z,5.40
2023-01-17T11:27:27.618Z,6.27
2023-01-17T11:30:05.008Z,7.03
2023-01-17T11:32:35.449Z,4.93
2023-01-17T11:35:11.531Z,7.00
2023-01-17T11:37:39.388Z,9.50
2023-01-17T11:40:20.484Z,8.67
2023-01-17T11:43:01.212Z,5.27
2023-01-17T11:45:30.435Z,6.27
2023-01-17T11:48:17.122Z,7.63
2023-01-17T11:50:47.787Z,7.70
2023-01-17T11:53:25.104Z,6.90
2023-01-17T11:55:54.648Z,8.73
2023-01-17T11:58:24.699Z,20.23
2023-01-17T12:00:59.987Z,4.93
2023-01-17T12:03:40.932Z,5.93
2023-01-17T12:06:14.596Z,8.23
2023-01-17T12:08:52.904Z,5.50
2023-01-17T12:11:23.810Z,6.00
2023-01-17T12:14:02.259Z,5.73
2023-01-17T12:16:41.155Z,6.53
2023-01-17T12:19:36.160Z,7.00
2023-01-17T12:22:18.942Z,3.33
2023-01-17T12:25:08.120Z,2.27
2023-01-17T12:27:43.461Z,5.47
2023-01-17T12:30:30.822Z,5.77
2023-01-17T12:33:20.996Z,4.27
2023-01-17T12:35:52.992Z,2.93
2023-01-17T12:38:32.569Z,5.80
2023-01-17T12:41:05.550Z,5.43
2023-01-17T12:43:37.394Z,4.90
2023-01-17T12:46:11.825Z,2.73
2023-01-17T12:48:40.065Z,2.27
2023-01-17T12:51:10.017Z,3.03
2023-01-17T12:53:43.297Z,2.70
2023-01-17T12:56:15.605Z,2.37
2023-01-17T12:58:46.225Z,3.77
2023-01-17T13:01:22.941Z,6.23
2023-01-17T13:04:00.157Z,6.37
2023-01-17T13:06:32.499Z,7.07
2023-01-17T13:09:01.792Z,2.93
2023-01-17T13:11:33.441Z,4.10
2023-01-17T13:14:02.967Z,7.47
2023-01-17T13:16:34.490Z,1.77
2023-01-17T13:19:20.877Z,7.17
2023-01-17T13:21:49.456Z,5.40
2023-01-17T13:24:23.640Z,3.60
2023-01-17T13:27:18.884Z,2.70
2023-01-17T13:30:06.049Z,6.30
2023-01-17T13:32:59.101Z,2.40
2023-01-17T13:35:37.031Z,3.63
2023-01-17T13:38:14.351Z,3.27
2023-01-17T13:40:50.478Z,4.40
2023-01-17T13:43:21.260Z,4.13
2023-01-17T13:45:53.586Z,4.53
2023-01-17T13:48:38.391Z,5.13
2023-01-17T13:51:06.925Z,7.93
2023-01-17T13:53:59.020Z,8.33
2023-01-17T13:56:43.232Z,5.23
2023-01-17T13:59:50.751Z,6.93
2023-01-17T14:03:16.492Z,8.23
2023-01-17T14:05:49.236Z,9.87
2023-01-17T14:08:19.244Z,2.00
2023-01-17T14:10:49.174Z,4.03
2023-01-17T14:13:37.648Z,2.60
2023-01-17T14:16:12.483Z,13.23
2023-01-17T14:18:50.632Z,7.03
2023-01-17T14:22:02.409Z,6.60
2023-01-17T14:24:38.477Z,2.60
2023-01-17T14:27:16.275Z,9.70
2023-01-17T14:29:55.802Z,7.17
2023-01-17T14:32:24.931Z,5.80
2023-01-17T14:34:53.393Z,7.47
2023-01-17T14:37:41.820Z,4.60
2023-01-17T14:40:18.250Z,8.23
2023-01-17T14:42:46.773Z,8.23
2023-01-17T14:45:20.467Z,8.20
2023-01-17T14:47:48.064Z,8.60
2023-01-17T14:50:27.238Z,4.70
2023-01-17T14:53:17.752Z,2.57
2023-01-17T14:56:02.155Z,4.60
2023-01-17T14:58:31.125Z,5.10
2023-01-17T15:01:01.396Z,3.70
2023-01-17T15:03:30.057Z,6.00
2023-01-17T15:05:58.842Z,9.17
2023-01-17T15:08:35.670Z,7.23
2023-01-17T15:11:11.135Z,8.70
2023-01-17T15:13:44.867Z,14.10
2023-01-17T15:16:22.744Z,4.90
2023-01-17T15:18:54.374Z,6.47
2023-01-17T15:21:27.637Z,3.20
2023-01-17T15:23:58.041Z,3.70
2023-01-17T15:26:27.923Z,10.17
2023-01-17T15:29:02.631Z,5.17
2023-01-17T15:31:40.483Z,8.80
2023-01-17T15:34:10.121Z,5.53
2023-01-17T15:36:38.501Z,9.27
2023-01-17T15:39:14.434Z,5.83
2023-01-17T15:41:42.214Z,7.13
2023-01-17T15:44:23.580Z,4.10
2023-01-17T15:46:52.033Z,3.40
2023-01-17T15:49:21.277Z,5.83
2023-01-17T15:51:52.883Z,4.10
2023-01-17T15:54:34.893Z,4.90
2023-01-17T15:57:04.648Z,4.90
2023-01-17T15:59:41.558Z,3.77
2023-01-17T16:02:24.981Z,12.80
2023-01-17T16:04:52.716Z,7.67
2023-01-17T16:07:22.263Z,5.90
2023-01-17T16:09:51.661Z,2.97
2023-01-17T16:12:19.289Z,8.37
2023-01-17T16:15:06.232Z,4.40
2023-01-17T16:17:35.902Z,6.97
2023-01-17T16:20:04.035Z,8.17
2023-01-17T16:22:31.564Z,9.23
2023-01-17T16:25:00.802Z,4.00
2023-01-17T16:27:28.321Z,6.03
2023-01-17T16:29:56.549Z,6.80
2023-01-17T16:32:24.092Z,5.67
2023-01-17T16:34:52.010Z,8.13
2023-01-17T16:37:21.949Z,5.80
2023-01-17T16:39:49.666Z,13.10
2023-01-17T16:42:20.268Z,6.57
2023-01-17T16:44:48.215Z,5.50
2023-01-17T16:47:18.227Z,9.60
2023-01-17T16:49:45.978Z,6.00
2023-01-17T16:52:13.995Z,6.50
2023-01-17T16:54:41.749Z,4.73
2023-01-17T16:57:09.195Z,5.73
2023-01-17T16:59:50.127Z,9.87
2023-01-17T17:02:18.722Z,7.40
2023-01-17T17:04:46.610Z,6.23
2023-01-17T17:07:14.156Z,7.03
2023-01-17T17:09:41.738Z,7.07
2023-01-17T17:12:09.722Z,4.80
2023-01-17T17:14:40.632Z,8.77
2023-01-17T17:17:08.261Z,7.73
2023-01-17T17:19:35.867Z,6.50
2023-01-17T17:22:06.562Z,5.07
2023-01-17T17:24:34.258Z,8.30
2023-01-17T17:27:01.836Z,7.13
2023-01-17T17:29:29.318Z,6.93
2023-01-17T17:31:58.504Z,5.83
2023-01-17T17:34:28.133Z,7.07
2023-01-17T17:36:55.703Z,11.87
2023-01-17T17:39:23.445Z,6.10
2023-01-17T17:41:51.132Z,13.07
2023-01-17T17:44:18.717Z,10.00
2023-01-17T17:46:49.141Z,18.10
2023-01-17T17:49:18.006Z,8.70
2023-01-17T17:51:46.075Z,7.00
2023-01-17T17:54:15.543Z,13.23
2023-01-17T17:56:46.437Z,4.50
2023-01-17T17:59:18.043Z,8.27
2023-01-17T18:01:45.740Z,9.43
2023-01-17T18:04:13.393Z,13.13
2023-01-17T18:06:46.227Z,10.93
2023-01-17T18:09:26.519Z,13.67
2023-01-17T18:12:06.195Z,11.47
2023-01-17T18:14:33.979Z,9.07
2023-01-17T18:17:01.823Z,7.73
2023-01-17T18:19:30.166Z,7.87
2023-01-17T18:22:08.102Z,10.70
2023-01-17T18:24:38.534Z,7.70
2023-01-17T18:27:10.971Z,8.30
2023-01-17T18:29:38.819Z,9.80
2023-01-17T18:32:10.731Z,12.80
2023-01-17T18:34:42.418Z,12.13
2023-01-17T18:37:11.454Z,14.93
2023-01-17T18:39:39.062Z,9.43
2023-01-17T18:42:07.695Z,12.10
2023-01-17T18:44:35.854Z,14.60
2023-01-17T18:47:05.139Z,14.10
2023-01-17T18:49:34.483Z,9.13
2023-01-17T18:52:05.613Z,9.10
2023-01-17T18:54:37.703Z,8.57
2023-01-17T18:57:06.051Z,10.07
2023-01-17T18:59:37.731Z,15.67
2023-01-17T19:02:06.531Z,13.93
2023-01-17T19:04:37.844Z,14.30
2023-01-17T19:07:12.541Z,8.30
2023-01-17T19:10:06.780Z,14.83
2023-01-17T19:12:34.755Z,13.53
2023-01-17T19:15:03.591Z,10.57
2023-01-17T19:17:31.707Z,17.17
2023-01-17T19:20:03.360Z,12.80
2023-01-17T19:22:35.320Z,16.27
2023-01-17T19:25:08.622Z,11.37
2023-01-17T19:27:42.345Z,13.03
2023-01-17T19:30:32.558Z,17.03
2023-01-17T19:33:40.804Z,17.63
2023-01-17T19:36:44.476Z,11.50
2023-01-17T19:44:21.193Z,12.17
2023-01-17T19:47:06.693Z,10.73
2023-01-17T19:49:40.083Z,12.90
2023-01-17T19:55:48.121Z,13.37
2023-01-17T19:58:18.916Z,11.60
2023-01-17T20:00:55.238Z,9.97
2023-01-17T20:03:28.968Z,14.37
2023-01-17T20:06:00.276Z,8.03
2023-01-17T20:08:28.682Z,14.60
2023-01-17T20:11:10.671Z,14.27
2023-01-17T20:13:59.734Z,10.07
2023-01-17T20:16:31.805Z,13.13
2023-01-17T20:19:20.733Z,13.33
2023-01-17T20:21:49.453Z,13.50
2023-01-17T20:25:26.597Z,23.30
2023-01-17T20:28:06.034Z,10.50
2023-01-17T20:30:48.006Z,16.63
2023-01-17T20:36:43.322Z,11.30
2023-01-17T20:39:12.992Z,15.33
2023-01-17T20:41:42.231Z,16.83
2023-01-17T20:44:13.091Z,14.13
2023-01-17T20:46:41.626Z,11.73
2023-01-17T20:49:14.581Z,9.90
2023-01-17T20:51:44.193Z,11.80
2023-01-17T20:54:14.280Z,12.50
2023-01-17T20:56:42.706Z,13.47
2023-01-17T20:59:14.496Z,15.47
2023-01-17T21:01:43.652Z,10.80
2023-01-17T21:04:13.161Z,12.17
2023-01-17T21:06:41.755Z,16.47
2023-01-17T21:09:12.338Z,19.70
2023-01-17T21:11:39.945Z,8.13
2023-01-17T21:14:07.814Z,16.87
2023-01-17T21:16:35.862Z,10.37
2023-01-17T21:19:03.994Z,15.90
2023-01-17T21:21:33.005Z,10.90
2023-01-17T21:24:00.732Z,11.50
2023-01-17T21:26:29.337Z,8.40
2023-01-17T21:28:57.566Z,15.13
2023-01-17T21:31:26.477Z,10.37
2023-01-17T21:33:56.559Z,9.67
2023-01-17T21:36:26.629Z,9.63
2023-01-17T21:38:56.973Z,8.67
2023-01-17T21:41:26.821Z,14.40
2023-01-17T21:43:55.644Z,12.43
2023-01-17T21:46:23.294Z,17.17
2023-01-17T21:48:50.997Z,14.33
2023-01-17T21:51:19.496Z,13.40
2023-01-17T21:53:47.208Z,14.13
2023-01-17T21:56:33.617Z,12.43
2023-01-17T21:59:01.791Z,12.37
2023-01-17T22:01:31.208Z,9.53
2023-01-17T22:04:01.028Z,9.80
2023-01-17T22:06:30.484Z,22.30
2023-01-17T22:08:58.412Z,7.23
2023-01-17T22:11:30.308Z,8.73
2023-01-17T22:13:59.214Z,10.67
2023-01-17T22:16:27.144Z,12.47
2023-01-17T22:18:54.747Z,10.03
2023-01-17T22:21:24.115Z,11.23
2023-01-17T22:23:53.084Z,9.60
2023-01-17T22:26:22.084Z,13.40
2023-01-17T22:28:51.077Z,9.27
2023-01-17T22:31:21.304Z,11.20
2023-01-17T22:33:53.462Z,20.43
2023-01-17T22:36:21.281Z,12.27
2023-01-17T22:38:48.950Z,19.60
2023-01-17T22:41:17.501Z,14.00
2023-01-17T22:43:47.125Z,14.70
2023-01-17T22:46:17.967Z,12.00
2023-01-17T22:48:46.199Z,14.40
2023-01-17T22:51:15.576Z,21.43
2023-01-17T22:53:45.094Z,16.63
2023-01-17T22:56:14.520Z,15.40
2023-01-17T22:58:44.771Z,19.60
2023-01-17T23:01:14.883Z,17.70
2023-01-17T23:03:44.619Z,17.27
2023-01-17T23:06:14.600Z,23.80
2023-01-17T23:08:43.785Z,15.23
2023-01-17T23:11:40.635Z,15.77
2023-01-17T23:14:10.807Z,19.40
2023-01-17T23:16:56.590Z,15.00
2023-01-17T23:19:26.198Z,15.47
2023-01-17T23:22:16.041Z,17.53
2023-01-17T23:24:45.327Z,21.20
2023-01-17T23:27:33.167Z,16.37
2023-01-17T23:30:00.815Z,19.60
2023-01-17T23:32:28.897Z,17.60
2023-01-17T23:34:57.841Z,18.03
2023-01-17T23:37:50.887Z,18.57
2023-01-17T23:40:19.176Z,14.80
2023-01-17T23:43:04.465Z,17.23
2023-01-17T23:45:35.027Z,21.87
2023-01-17T23:48:05.008Z,16.50
2023-01-17T23:50:34.339Z,21.30
2023-01-17T23:53:06.856Z,19.13
2023-01-17T23:55:35.982Z,23.60
2023-01-17T23:58:03.886Z,22.33
